sensor_id;sensor_type;location;lat;lon;timestamp;P1;durP1;ratioP1;P2;durP2;ratioP2
14167;SDS011;7163;50.626;12.922;2022-11-11T00:01:46;9.60;;;3.23;;
14167;SDS011;7163;50.626;12.922;2022-11-11T00:06:48;8.03;;;3.80;;
14167;SDS011;7163;50.626;12.922;2022-11-11T00:11:48;10.33;;;3.70;;
14167;SDS011;7163;50.626;12.922;2022-11-11T00:16:49;10.40;;;3.60;;
14167;SDS011;7163;50.626;12.922;2022-11-11T00:22:20;5.37;;;3.53;;
14167;SDS011;7163;50.626;12.922;2022-11-11T00:27:27;9.20;;;3.63;;
14167;SDS011;7163;50.626;12.922;2022-11-11T00:32:27;5.93;;;3.60;;
14167;SDS011;7163;50.626;12.922;2022-11-11T00:37:31;7.80;;;3.40;;
14167;SDS011;7163;50.626;12.922;2022-11-11T00:42:32;12.07;;;3.47;;
14167;SDS011;7163;50.626;12.922;2022-11-11T00:47:32;5.30;;;3.27;;
14167;SDS011;7163;50.626;12.922;2022-11-11T00:52:51;6.00;;;3.47;;
14167;SDS011;7163;50.626;12.922;2022-11-11T00:57:51;5.00;;;2.90;;
14167;SDS011;7163;50.626;12.922;2022-11-11T01:02:52;8.70;;;3.47;;
14167;SDS011;7163;50.626;12.922;2022-11-11T01:07:53;13.13;;;3.07;;
14167;SDS011;7163;50.626;12.922;2022-11-11T01:12:54;7.77;;;3.30;;
14167;SDS011;7163;50.626;12.922;2022-11-11T01:18:12;9.13;;;3.73;;
14167;SDS011;7163;50.626;12.922;2022-11-11T01:23:13;11.83;;;3.67;;
14167;SDS011;7163;50.626;12.922;2022-11-11T01:28:14;6.87;;;3.50;;
14167;SDS011;7163;50.626;12.922;2022-11-11T01:33:23;5.23;;;3.33;;
14167;SDS011;7163;50.626;12.922;2022-11-11T01:38:24;8.90;;;3.80;;
14167;SDS011;7163;50.626;12.922;2022-11-11T01:43:24;9.80;;;3.40;;
14167;SDS011;7163;50.626;12.922;2022-11-11T01:48:36;18.20;;;3.80;;
14167;SDS011;7163;50.626;12.922;2022-11-11T01:53:59;7.47;;;3.07;;
14167;SDS011;7163;50.626;12.922;2022-11-11T01:59:08;8.53;;;3.30;;
14167;SDS011;7163;50.626;12.922;2022-11-11T02:04:10;9.50;;;3.17;;
14167;SDS011;7163;50.626;12.922;2022-11-11T02:09:30;13.37;;;3.00;;
14167;SDS011;7163;50.626;12.922;2022-11-11T02:14:31;12.93;;;3.43;;
14167;SDS011;7163;50.626;12.922;2022-11-11T02:24:55;14.00;;;3.00;;
14167;SDS011;7163;50.626;12.922;2022-11-11T02:29:58;24.10;;;3.67;;
14167;SDS011;7163;50.626;12.922;2022-11-11T02:35:00;10.30;;;3.00;;
14167;SDS011;7163;50.626;12.922;2022-11-11T02:40:02;8.93;;;3.53;;
14167;SDS011;7163;50.626;12.922;2022-11-11T02:45:03;4.63;;;2.83;;
14167;SDS011;7163;50.626;12.922;2022-11-11T02:50:04;9.50;;;3.50;;
14167;SDS011;7163;50.626;12.922;2022-11-11T02:55:05;10.00;;;3.10;;
14167;SDS011;7163;50.626;12.922;2022-11-11T03:00:06;11.63;;;4.40;;
14167;SDS011;7163;50.626;12.922;2022-11-11T03:05:07;11.30;;;3.53;;
14167;SDS011;7163;50.626;12.922;2022-11-11T03:10:07;8.63;;;2.50;;
14167;SDS011;7163;50.626;12.922;2022-11-11T03:15:08;5.83;;;2.70;;
14167;SDS011;7163;50.626;12.922;2022-11-11T03:20:12;9.57;;;2.60;;
14167;SDS011;7163;50.626;12.922;2022-11-11T03:25:33;9.07;;;2.60;;
14167;SDS011;7163;50.626;12.922;2022-11-11T03:30:40;8.93;;;2.30;;
14167;SDS011;7163;50.626;12.922;2022-11-11T03:35:42;5.73;;;2.20;;
14167;SDS011;7163;50.626;12.922;2022-11-11T03:40:46;6.33;;;2.23;;
14167;SDS011;7163;50.626;12.922;2022-11-11T03:45:46;4.57;;;2.37;;
14167;SDS011;7163;50.626;12.922;2022-11-11T03:50:47;6.47;;;2.53;;
14167;SDS011;7163;50.626;12.922;2022-11-11T03:55:48;7.90;;;2.30;;
14167;SDS011;7163;50.626;12.922;2022-11-11T04:00:49;7.37;;;2.70;;
14167;SDS011;7163;50.626;12.922;2022-11-11T04:05:50;6.23;;;2.30;;
14167;SDS011;7163;50.626;12.922;2022-11-11T04:11:04;8.07;;;2.40;;
14167;SDS011;7163;50.626;12.922;2022-11-11T04:16:06;8.73;;;2.37;;
14167;SDS011;7163;50.626;12.922;2022-11-11T04:21:07;5.60;;;2.27;;
14167;SDS011;7163;50.626;12.922;2022-11-11T04:26:26;8.37;;;2.60;;
14167;SDS011;7163;50.626;12.922;2022-11-11T04:31:26;4.83;;;2.30;;
14167;SDS011;7163;50.626;12.922;2022-11-11T04:36:27;5.27;;;2.10;;
14167;SDS011;7163;50.626;12.922;2022-11-11T04:41:27;6.97;;;2.50;;
14167;SDS011;7163;50.626;12.922;2022-11-11T04:46:28;7.43;;;2.50;;
14167;SDS011;7163;50.626;12.922;2022-11-11T04:51:28;8.47;;;2.53;;
14167;SDS011;7163;50.626;12.922;2022-11-11T04:56:48;9.33;;;3.43;;
14167;SDS011;7163;50.626;12.922;2022-11-11T05:01:49;11.30;;;2.70;;
14167;SDS011;7163;50.626;12.922;2022-11-11T05:07:08;6.13;;;2.57;;
14167;SDS011;7163;50.626;12.922;2022-11-11T05:12:27;5.00;;;2.43;;
14167;SDS011;7163;50.626;12.922;2022-11-11T05:17:27;8.77;;;2.63;;
14167;SDS011;7163;50.626;12.922;2022-11-11T05:22:46;9.07;;;2.47;;
14167;SDS011;7163;50.626;12.922;2022-11-11T05:27:46;9.50;;;2.50;;
14167;SDS011;7163;50.626;12.922;2022-11-11T05:32:47;7.67;;;2.40;;
14167;SDS011;7163;50.626;12.922;2022-11-11T05:37:48;5.97;;;2.43;;
14167;SDS011;7163;50.626;12.922;2022-11-11T05:43:08;8.63;;;2.60;;
14167;SDS011;7163;50.626;12.922;2022-11-11T05:48:08;6.10;;;2.53;;
14167;SDS011;7163;50.626;12.922;2022-11-11T05:53:09;6.77;;;2.00;;
14167;SDS011;7163;50.626;12.922;2022-11-11T05:58:10;4.73;;;2.07;;
14167;SDS011;7163;50.626;12.922;2022-11-11T06:03:10;10.67;;;2.20;;
14167;SDS011;7163;50.626;12.922;2022-11-11T06:08:11;6.17;;;2.37;;
14167;SDS011;7163;50.626;12.922;2022-11-11T06:13:11;5.33;;;2.27;;
14167;SDS011;7163;50.626;12.922;2022-11-11T06:18:14;9.20;;;2.50;;
14167;SDS011;7163;50.626;12.922;2022-11-11T06:23:14;11.00;;;4.83;;
14167;SDS011;7163;50.626;12.922;2022-11-11T06:28:15;58.97;;;18.00;;
14167;SDS011;7163;50.626;12.922;2022-11-11T06:33:18;15.50;;;5.80;;
14167;SDS011;7163;50.626;12.922;2022-11-11T06:38:19;9.20;;;3.80;;
14167;SDS011;7163;50.626;12.922;2022-11-11T06:43:20;9.37;;;3.30;;
14167;SDS011;7163;50.626;12.922;2022-11-11T06:48:21;11.10;;;3.50;;
14167;SDS011;7163;50.626;12.922;2022-11-11T06:53:22;9.33;;;4.07;;
14167;SDS011;7163;50.626;12.922;2022-11-11T06:58:23;12.80;;;4.87;;
14167;SDS011;7163;50.626;12.922;2022-11-11T07:03:24;5.73;;;3.30;;
14167;SDS011;7163;50.626;12.922;2022-11-11T07:08:24;8.03;;;2.90;;
14167;SDS011;7163;50.626;12.922;2022-11-11T07:13:25;10.57;;;3.70;;
14167;SDS011;7163;50.626;12.922;2022-11-11T07:18:25;5.90;;;3.37;;
14167;SDS011;7163;50.626;12.922;2022-11-11T07:23:25;8.03;;;3.60;;
14167;SDS011;7163;50.626;12.922;2022-11-11T07:28:26;7.17;;;3.10;;
14167;SDS011;7163;50.626;12.922;2022-11-11T07:33:27;5.83;;;2.57;;
14167;SDS011;7163;50.626;12.922;2022-11-11T07:38:27;10.43;;;2.50;;
14167;SDS011;7163;50.626;12.922;2022-11-11T07:43:27;4.47;;;2.40;;
14167;SDS011;7163;50.626;12.922;2022-11-11T07:48:28;6.47;;;2.27;;
14167;SDS011;7163;50.626;12.922;2022-11-11T07:53:28;3.43;;;2.17;;
14167;SDS011;7163;50.626;12.922;2022-11-11T07:58:29;5.53;;;2.70;;
14167;SDS011;7163;50.626;12.922;2022-11-11T08:03:29;7.80;;;3.40;;
14167;SDS011;7163;50.626;12.922;2022-11-11T08:08:30;5.20;;;3.00;;
14167;SDS011;7163;50.626;12.922;2022-11-11T08:13:30;3.80;;;2.73;;
14167;SDS011;7163;50.626;12.922;2022-11-11T08:18:40;5.60;;;3.17;;
14167;SDS011;7163;50.626;12.922;2022-11-11T08:23:40;8.40;;;2.93;;
14167;SDS011;7163;50.626;12.922;2022-11-11T08:28:41;7.60;;;2.83;;
14167;SDS011;7163;50.626;12.922;2022-11-11T08:33:41;2.60;;;1.80;;
14167;SDS011;7163;50.626;12.922;2022-11-11T08:38:42;2.50;;;1.40;;
14167;SDS011;7163;50.626;12.922;2022-11-11T08:43:42;2.73;;;1.50;;
14167;SDS011;7163;50.626;12.922;2022-11-11T08:48:43;2.53;;;1.60;;
14167;SDS011;7163;50.626;12.922;2022-11-11T08:53:43;1.80;;;1.40;;
14167;SDS011;7163;50.626;12.922;2022-11-11T08:58:44;3.43;;;1.50;;
14167;SDS011;7163;50.626;12.922;2022-11-11T09:03:44;3.43;;;1.70;;
14167;SDS011;7163;50.626;12.922;2022-11-11T09:08:45;3.33;;;1.73;;
14167;SDS011;7163;50.626;12.922;2022-11-11T09:13:46;14.13;;;7.83;;
14167;SDS011;7163;50.626;12.922;2022-11-11T09:18:46;1.67;;;1.20;;
14167;SDS011;7163;50.626;12.922;2022-11-11T09:23:47;3.70;;;1.48;;
14167;SDS011;7163;50.626;12.922;2022-11-11T09:28:47;2.63;;;1.33;;
14167;SDS011;7163;50.626;12.922;2022-11-11T09:33:48;3.20;;;1.75;;
14167;SDS011;7163;50.626;12.922;2022-11-11T09:38:49;2.22;;;1.30;;
14167;SDS011;7163;50.626;12.922;2022-11-11T09:43:56;2.35;;;1.60;;
14167;SDS011;7163;50.626;12.922;2022-11-11T09:49:17;3.05;;;1.40;;
14167;SDS011;7163;50.626;12.922;2022-11-11T09:54:39;4.30;;;1.52;;
14167;SDS011;7163;50.626;12.922;2022-11-11T09:59:48;2.65;;;1.80;;
14167;SDS011;7163;50.626;12.922;2022-11-11T10:05:00;5.03;;;1.60;;
14167;SDS011;7163;50.626;12.922;2022-11-11T10:10:11;2.90;;;1.63;;
14167;SDS011;7163;50.626;12.922;2022-11-11T10:15:20;2.43;;;1.50;;
14167;SDS011;7163;50.626;12.922;2022-11-11T10:20:23;1.67;;;1.50;;
14167;SDS011;7163;50.626;12.922;2022-11-11T10:25:25;4.30;;;2.23;;
14167;SDS011;7163;50.626;12.922;2022-11-11T10:30:29;5.60;;;1.80;;
14167;SDS011;7163;50.626;12.922;2022-11-11T10:35:31;2.80;;;1.48;;
14167;SDS011;7163;50.626;12.922;2022-11-11T10:40:34;2.50;;;1.55;;
14167;SDS011;7163;50.626;12.922;2022-11-11T10:45:40;2.10;;;1.30;;
14167;SDS011;7163;50.626;12.922;2022-11-11T10:50:49;3.30;;;1.50;;
14167;SDS011;7163;50.626;12.922;2022-11-11T10:56:03;1.48;;;1.30;;
14167;SDS011;7163;50.626;12.922;2022-11-11T11:01:13;3.60;;;1.40;;
14167;SDS011;7163;50.626;12.922;2022-11-11T11:06:23;4.35;;;2.47;;
14167;SDS011;7163;50.626;12.922;2022-11-11T11:11:29;1.50;;;1.33;;
14167;SDS011;7163;50.626;12.922;2022-11-11T11:16:35;1.30;;;1.20;;
14167;SDS011;7163;50.626;12.922;2022-11-11T11:21:48;1.80;;;1.23;;
14167;SDS011;7163;50.626;12.922;2022-11-11T11:26:55;4.43;;;1.83;;
14167;SDS011;7163;50.626;12.922;2022-11-11T11:32:09;3.10;;;1.27;;
14167;SDS011;7163;50.626;12.922;2022-11-11T11:37:14;4.13;;;1.23;;
14167;SDS011;7163;50.626;12.922;2022-11-11T11:42:37;3.08;;;1.00;;
14167;SDS011;7163;50.626;12.922;2022-11-11T12:04:43;1.73;;;0.85;;
14167;SDS011;7163;50.626;12.922;2022-11-11T12:10:02;1.33;;;1.05;;
14167;SDS011;7163;50.626;12.922;2022-11-11T12:36:25;1.40;;;0.93;;
14167;SDS011;7163;50.626;12.922;2022-11-11T12:41:44;1.98;;;1.10;;
14167;SDS011;7163;50.626;12.922;2022-11-11T12:47:06;2.15;;;1.17;;
14167;SDS011;7163;50.626;12.922;2022-11-11T12:52:16;3.03;;;1.00;;
14167;SDS011;7163;50.626;12.922;2022-11-11T12:57:45;2.58;;;1.10;;
14167;SDS011;7163;50.626;12.922;2022-11-11T13:03:08;1.23;;;1.10;;
14167;SDS011;7163;50.626;12.922;2022-11-11T13:08:35;1.60;;;1.27;;
14167;SDS011;7163;50.626;12.922;2022-11-11T13:13:59;2.72;;;1.15;;
14167;SDS011;7163;50.626;12.922;2022-11-11T13:19:17;2.15;;;1.67;;
14167;SDS011;7163;50.626;12.922;2022-11-11T13:24:21;1.35;;;1.23;;
14167;SDS011;7163;50.626;12.922;2022-11-11T13:29:31;5.10;;;1.58;;
14167;SDS011;7163;50.626;12.922;2022-11-11T13:34:48;1.38;;;1.20;;
14167;SDS011;7163;50.626;12.922;2022-11-11T13:39:49;2.00;;;1.30;;
14167;SDS011;7163;50.626;12.922;2022-11-11T13:44:55;2.08;;;1.70;;
14167;SDS011;7163;50.626;12.922;2022-11-11T13:49:58;2.50;;;1.40;;
14167;SDS011;7163;50.626;12.922;2022-11-11T13:55:04;2.40;;;1.48;;
14167;SDS011;7163;50.626;12.922;2022-11-11T14:05:18;5.30;;;2.50;;
14167;SDS011;7163;50.626;12.922;2022-11-11T14:25:31;4.03;;;2.23;;
14167;SDS011;7163;50.626;12.922;2022-11-11T14:30:37;3.07;;;2.10;;
14167;SDS011;7163;50.626;12.922;2022-11-11T14:35:38;4.77;;;2.90;;
14167;SDS011;7163;50.626;12.922;2022-11-11T14:40:44;4.13;;;2.73;;
14167;SDS011;7163;50.626;12.922;2022-11-11T14:50:44;7.47;;;4.57;;
14167;SDS011;7163;50.626;12.922;2022-11-11T14:55:50;7.33;;;4.80;;
14167;SDS011;7163;50.626;12.922;2022-11-11T15:00:59;13.83;;;7.83;;
14167;SDS011;7163;50.626;12.922;2022-11-11T15:16:33;14.07;;;9.90;;
14167;SDS011;7163;50.626;12.922;2022-11-11T15:21:55;14.37;;;7.67;;
14167;SDS011;7163;50.626;12.922;2022-11-11T15:32:32;9.57;;;6.27;;
14167;SDS011;7163;50.626;12.922;2022-11-11T15:37:48;6.33;;;3.97;;
14167;SDS011;7163;50.626;12.922;2022-11-11T15:42:52;7.07;;;4.40;;
14167;SDS011;7163;50.626;12.922;2022-11-11T15:47:52;8.83;;;5.50;;
14167;SDS011;7163;50.626;12.922;2022-11-11T15:52:54;10.40;;;6.13;;
14167;SDS011;7163;50.626;12.922;2022-11-11T15:58:06;74.13;;;32.27;;
14167;SDS011;7163;50.626;12.922;2022-11-11T16:03:15;97.73;;;40.43;;
14167;SDS011;7163;50.626;12.922;2022-11-11T16:08:23;115.53;;;51.47;;
14167;SDS011;7163;50.626;12.922;2022-11-11T16:13:26;94.70;;;44.27;;
14167;SDS011;7163;50.626;12.922;2022-11-11T16:19:17;97.83;;;45.60;;
14167;SDS011;7163;50.626;12.922;2022-11-11T16:23:52;104.03;;;48.17;;
14167;SDS011;7163;50.626;12.922;2022-11-11T16:28:53;94.00;;;44.87;;
14167;SDS011;7163;50.626;12.922;2022-11-11T16:33:55;88.97;;;41.77;;
14167;SDS011;7163;50.626;12.922;2022-11-11T16:39:10;75.80;;;34.83;;
14167;SDS011;7163;50.626;12.922;2022-11-11T16:45:17;65.57;;;31.90;;
14167;SDS011;7163;50.626;12.922;2022-11-11T16:49:49;55.03;;;27.13;;
14167;SDS011;7163;50.626;12.922;2022-11-11T16:55:00;92.40;;;44.67;;
14167;SDS011;7163;50.626;12.922;2022-11-11T17:00:03;84.93;;;39.83;;
14167;SDS011;7163;50.626;12.922;2022-11-11T17:05:04;82.50;;;37.67;;
14167;SDS011;7163;50.626;12.922;2022-11-11T17:15:13;96.77;;;40.10;;
14167;SDS011;7163;50.626;12.922;2022-11-11T17:20:15;76.53;;;35.27;;
14167;SDS011;7163;50.626;12.922;2022-11-11T17:25:17;68.50;;;31.83;;
14167;SDS011;7163;50.626;12.922;2022-11-11T17:30:18;38.87;;;18.83;;
14167;SDS011;7163;50.626;12.922;2022-11-11T17:35:18;27.57;;;15.07;;
14167;SDS011;7163;50.626;12.922;2022-11-11T17:40:18;27.60;;;14.27;;
14167;SDS011;7163;50.626;12.922;2022-11-11T17:45:19;38.97;;;18.03;;
14167;SDS011;7163;50.626;12.922;2022-11-11T17:50:19;52.90;;;24.70;;
14167;SDS011;7163;50.626;12.922;2022-11-11T17:55:20;39.17;;;19.53;;
14167;SDS011;7163;50.626;12.922;2022-11-11T18:00:20;56.20;;;25.67;;
14167;SDS011;7163;50.626;12.922;2022-11-11T18:05:21;41.30;;;21.83;;
14167;SDS011;7163;50.626;12.922;2022-11-11T18:10:21;29.03;;;17.53;;
14167;SDS011;7163;50.626;12.922;2022-11-11T18:15:22;23.00;;;13.33;;
14167;SDS011;7163;50.626;12.922;2022-11-11T18:20:22;20.13;;;10.97;;
14167;SDS011;7163;50.626;12.922;2022-11-11T18:25:23;15.37;;;9.37;;
14167;SDS011;7163;50.626;12.922;2022-11-11T18:30:23;17.40;;;11.40;;
14167;SDS011;7163;50.626;12.922;2022-11-11T18:35:23;16.70;;;11.23;;
14167;SDS011;7163;50.626;12.922;2022-11-11T18:40:24;19.60;;;11.23;;
14167;SDS011;7163;50.626;12.922;2022-11-11T18:45:26;35.20;;;21.20;;
14167;SDS011;7163;50.626;12.922;2022-11-11T18:50:27;42.03;;;24.33;;
14167;SDS011;7163;50.626;12.922;2022-11-11T18:55:28;30.57;;;17.60;;
14167;SDS011;7163;50.626;12.922;2022-11-11T19:00:28;39.13;;;22.80;;
14167;SDS011;7163;50.626;12.922;2022-11-11T19:05:28;42.20;;;25.33;;
14167;SDS011;7163;50.626;12.922;2022-11-11T19:10:30;46.03;;;28.37;;
14167;SDS011;7163;50.626;12.922;2022-11-11T19:15:31;51.57;;;32.40;;
14167;SDS011;7163;50.626;12.922;2022-11-11T19:20:32;65.13;;;39.60;;
14167;SDS011;7163;50.626;12.922;2022-11-11T19:25:32;66.97;;;40.37;;
14167;SDS011;7163;50.626;12.922;2022-11-11T19:30:33;58.33;;;38.37;;
14167;SDS011;7163;50.626;12.922;2022-11-11T19:35:34;65.87;;;38.77;;
14167;SDS011;7163;50.626;12.922;2022-11-11T19:40:37;59.23;;;35.40;;
14167;SDS011;7163;50.626;12.922;2022-11-11T19:45:38;49.77;;;28.53;;
14167;SDS011;7163;50.626;12.922;2022-11-11T19:50:38;38.60;;;20.63;;
14167;SDS011;7163;50.626;12.922;2022-11-11T19:55:39;35.90;;;20.57;;
14167;SDS011;7163;50.626;12.922;2022-11-11T20:00:39;17.03;;;9.93;;
14167;SDS011;7163;50.626;12.922;2022-11-11T20:05:40;17.80;;;10.00;;
14167;SDS011;7163;50.626;12.922;2022-11-11T20:10:41;34.17;;;18.17;;
14167;SDS011;7163;50.626;12.922;2022-11-11T20:15:43;31.40;;;20.83;;
14167;SDS011;7163;50.626;12.922;2022-11-11T20:20:43;42.03;;;26.57;;
14167;SDS011;7163;50.626;12.922;2022-11-11T20:25:44;34.80;;;20.93;;
14167;SDS011;7163;50.626;12.922;2022-11-11T20:30:44;25.07;;;15.67;;
14167;SDS011;7163;50.626;12.922;2022-11-11T20:35:45;23.70;;;13.20;;
14167;SDS011;7163;50.626;12.922;2022-11-11T20:40:45;18.00;;;11.10;;
14167;SDS011;7163;50.626;12.922;2022-11-11T20:45:46;17.57;;;11.40;;
14167;SDS011;7163;50.626;12.922;2022-11-11T20:50:46;13.70;;;8.70;;
14167;SDS011;7163;50.626;12.922;2022-11-11T20:55:46;15.07;;;9.07;;
14167;SDS011;7163;50.626;12.922;2022-11-11T21:00:47;12.80;;;8.03;;
14167;SDS011;7163;50.626;12.922;2022-11-11T21:05:47;13.20;;;8.33;;
14167;SDS011;7163;50.626;12.922;2022-11-11T21:10:47;14.63;;;8.83;;
14167;SDS011;7163;50.626;12.922;2022-11-11T21:15:48;13.10;;;7.93;;
14167;SDS011;7163;50.626;12.922;2022-11-11T21:20:48;14.13;;;8.20;;
14167;SDS011;7163;50.626;12.922;2022-11-11T21:25:49;10.47;;;6.93;;
14167;SDS011;7163;50.626;12.922;2022-11-11T21:30:49;9.10;;;5.83;;
14167;SDS011;7163;50.626;12.922;2022-11-11T21:35:50;12.50;;;7.80;;
14167;SDS011;7163;50.626;12.922;2022-11-11T21:40:50;14.67;;;9.97;;
14167;SDS011;7163;50.626;12.922;2022-11-11T21:45:51;12.43;;;7.90;;
14167;SDS011;7163;50.626;12.922;2022-11-11T21:50:51;13.20;;;8.30;;
14167;SDS011;7163;50.626;12.922;2022-11-11T21:55:51;10.23;;;6.43;;
14167;SDS011;7163;50.626;12.922;2022-11-11T22:00:52;8.30;;;4.87;;
14167;SDS011;7163;50.626;12.922;2022-11-11T22:05:53;7.53;;;5.23;;
14167;SDS011;7163;50.626;12.922;2022-11-11T22:10:54;7.47;;;5.00;;
14167;SDS011;7163;50.626;12.922;2022-11-11T22:16:01;7.10;;;4.57;;
14167;SDS011;7163;50.626;12.922;2022-11-11T22:21:04;5.87;;;4.37;;
14167;SDS011;7163;50.626;12.922;2022-11-11T22:26:09;7.30;;;5.37;;
14167;SDS011;7163;50.626;12.922;2022-11-11T22:36:13;12.97;;;8.07;;
14167;SDS011;7163;50.626;12.922;2022-11-11T22:41:16;14.37;;;8.40;;
14167;SDS011;7163;50.626;12.922;2022-11-11T22:46:18;13.90;;;8.13;;
14167;SDS011;7163;50.626;12.922;2022-11-11T22:51:21;13.47;;;7.00;;
14167;SDS011;7163;50.626;12.922;2022-11-11T22:56:22;12.90;;;7.50;;
14167;SDS011;7163;50.626;12.922;2022-11-11T23:01:27;14.87;;;7.13;;
14167;SDS011;7163;50.626;12.922;2022-11-11T23:06:33;10.67;;;4.87;;
14167;SDS011;7163;50.626;12.922;2022-11-11T23:11:39;6.60;;;3.60;;
14167;SDS011;7163;50.626;12.922;2022-11-11T23:16:39;5.67;;;3.70;;
14167;SDS011;7163;50.626;12.922;2022-11-11T23:21:40;7.97;;;3.93;;
14167;SDS011;7163;50.626;12.922;2022-11-11T23:26:40;4.93;;;3.30;;
14167;SDS011;7163;50.626;12.922;2022-11-11T23:31:42;5.10;;;3.10;;
14167;SDS011;7163;50.626;12.922;2022-11-11T23:36:43;5.10;;;3.17;;
14167;SDS011;7163;50.626;12.922;2022-11-11T23:41:43;3.53;;;3.07;;
14167;SDS011;7163;50.626;12.922;2022-11-11T23:46:43;5.07;;;3.03;;
14167;SDS011;7163;50.626;12.922;2022-11-11T23:51:44;4.10;;;2.97;;
14167;SDS011;7163;50.626;12.922;2022-11-11T23:56:44;5.60;;;3.27;;
